Time;durP1;ratioP1;P1;durP2;ratioP2;P2;SDS_P1;SDS_P2;PMS_P1;PMS_P2;Temp;Humidity;BMP_temperature;BMP_pressure;BME280_temperature;BME280_humidity;BME280_pressure;Samples;Min_cycle;Max_cycle;Signal;HPM_P1;HPM_P2
2022/06/05 00:03:58;;;;;;;4.97;4.50;;;;;;;16.59;64.92;100877.91;3673669;75;20969;-83
2022/06/05 00:09:14;;;;;;;5.37;4.87;;;;;;;16.53;64.62;100875.33;3630649;75;21619;-83
2022/06/05 00:14:05;;;;;;;5.67;4.67;;;;;;;16.44;64.71;100872.76;3420678;80;20995;-83
2022/06/05 00:18:56;;;;;;;5.35;4.90;;;;;;;16.35;64.70;100868.42;3420367;80;20988;-83
2022/06/05 00:23:50;;;;;;;4.58;4.17;;;;;;;16.26;64.77;100871.95;3409910;81;20957;-83
2022/06/05 00:29:16;;;;;;;5.28;4.80;;;;;;;16.20;64.69;100870.64;3430820;80;20983;-83
2022/06/05 00:34:08;;;;;;;5.20;4.73;;;;;;;16.12;64.72;100880.31;3445182;80;20959;-83
2022/06/05 00:39:28;;;;;;;5.12;4.55;;;;;;;16.05;64.78;100882.52;3407924;80;20940;-83
2022/06/05 00:44:40;;;;;;;5.30;4.45;;;;;;;16.02;64.77;100891.25;3433292;80;22204;-83
2022/06/05 00:49:39;;;;;;;5.25;4.70;;;;;;;15.94;64.71;100892.59;3493040;76;21219;-83
2022/06/05 00:54:30;;;;;;;5.05;4.55;;;;;;;15.87;64.72;100889.55;3619913;75;21870;-83
2022/06/05 00:59:22;;;;;;;5.42;4.97;;;;;;;15.79;64.68;100892.61;3630003;75;20916;-83
2022/06/05 01:04:16;;;;;;;5.33;4.83;;;;;;;15.74;64.73;100898.26;3677790;75;21573;-83
2022/06/05 01:09:07;;;;;;;5.50;4.90;;;;;;;15.69;64.55;100900.04;3643445;75;20955;-83
2022/06/05 01:14:22;;;;;;;5.05;4.65;;;;;;;15.63;64.59;100891.72;3612280;76;20953;-83
2022/06/05 01:19:44;;;;;;;5.28;4.78;;;;;;;15.55;64.48;100889.56;3668329;76;20943;-83
2022/06/05 01:25:23;;;;;;;4.50;4.00;;;;;;;15.49;64.51;100885.20;3656496;75;20991;-83
2022/06/05 01:30:19;;;;;;;4.67;4.28;;;;;;;15.41;64.40;100886.94;3627952;76;20982;-83
2022/06/05 01:35:25;;;;;;;5.72;4.87;;;;;;;15.34;64.53;100885.20;3640635;76;20960;-83
2022/06/05 01:40:25;;;;;;;5.67;4.47;;;;;;;15.27;64.52;100875.59;3519753;80;22242;-83
2022/06/05 01:45:24;;;;;;;6.40;4.53;;;;;;;15.19;64.54;100876.46;3495888;80;20963;-83
2022/06/05 01:50:29;;;;;;;5.78;5.03;;;;;;;15.11;64.71;100883.42;3373328;83;20999;-83
2022/06/05 01:55:31;;;;;;;6.15;5.05;;;;;;;15.03;64.88;100893.90;3391382;83;21047;-83
2022/06/05 02:00:23;;;;;;;5.17;4.78;;;;;;;14.99;65.02;100893.91;3374293;83;21076;-83
2022/06/05 02:05:20;;;;;;;5.37;4.50;;;;;;;14.94;65.00;100896.95;3362933;83;20960;-82
2022/06/05 02:10:26;;;;;;;5.95;5.25;;;;;;;14.89;65.05;100899.99;3372652;83;21398;-82
2022/06/05 02:15:17;;;;;;;7.83;5.25;;;;;;;14.84;65.03;100904.80;3439371;79;20955;-82
2022/06/05 02:20:09;;;;;;;5.17;4.67;;;;;;;14.80;65.09;100914.80;3559592;77;21970;-83
2022/06/05 02:25:01;;;;;;;5.55;5.00;;;;;;;14.78;65.04;100920.91;3525456;78;21012;-83
2022/06/05 02:29:55;;;;;;;8.40;5.37;;;;;;;14.75;65.07;100921.75;3532946;77;20927;-82
2022/06/05 02:35:21;;;;;;;5.97;5.37;;;;;;;14.69;64.92;100921.75;3560918;77;21940;-82
2022/06/05 02:40:54;;;;;;;6.00;4.95;;;;;;;14.62;65.00;100923.91;3593843;77;20965;-83
2022/06/05 02:45:51;;;;;;;7.25;4.60;;;;;;;14.58;65.05;100940.03;3479194;80;20977;-83
2022/06/05 02:50:56;;;;;;;5.60;5.10;;;;;;;14.53;65.04;100940.84;3476705;80;20960;-82
2022/06/05 02:55:47;;;;;;;5.33;4.83;;;;;;;14.49;65.01;100931.67;3474452;80;21446;-83
2022/06/05 03:00:40;;;;;;;7.47;4.75;;;;;;;14.47;64.83;100937.78;3417916;81;22020;-83
2022/06/05 03:05:33;;;;;;;5.12;4.55;;;;;;;14.53;64.94;100936.92;3421589;80;20937;-83
2022/06/05 03:10:24;;;;;;;4.78;4.37;;;;;;;14.64;64.79;100935.25;3413959;81;21039;-83
2022/06/05 03:15:16;;;;;;;5.30;4.78;;;;;;;14.87;64.69;100954.52;3521572;77;20937;-82
2022/06/05 03:20:09;;;;;;;6.12;5.53;;;;;;;15.60;64.33;100962.06;3631419;77;20924;-83
2022/06/05 03:25:01;;;;;;;5.30;4.80;;;;;;;16.28;63.80;100956.77;3559037;78;21397;-83
2022/06/05 03:29:52;;;;;;;4.67;4.28;;;;;;;18.22;62.18;100967.80;3518461;77;21009;-84
2022/06/05 03:34:44;;;;;;;4.58;4.17;;;;;;;19.69;59.75;100968.92;3590281;77;21062;-84
2022/06/05 03:39:35;;;;;;;5.42;5.00;;;;;;;19.16;58.22;100972.81;3588524;77;20995;-84
2022/06/05 03:44:27;;;;;;;5.80;4.87;;;;;;;18.31;58.07;100982.63;3607896;77;20974;-84
2022/06/05 03:49:18;;;;;;;4.90;4.60;;;;;;;17.95;58.13;100987.38;3589426;77;21342;-83
2022/06/05 03:54:09;;;;;;;4.95;4.45;;;;;;;17.43;58.17;100977.67;3613034;77;21432;-83
2022/06/05 03:59:00;;;;;;;5.40;4.90;;;;;;;16.80;58.83;100973.21;3557970;78;20944;-83
2022/06/05 04:03:53;;;;;;;5.95;4.87;;;;;;;16.32;59.25;100983.87;3500342;77;21456;-83
2022/06/05 04:08:44;;;;;;;5.42;4.75;;;;;;;15.85;59.62;100989.63;3582561;77;21500;-83
2022/06/05 04:13:36;;;;;;;5.45;4.95;;;;;;;15.48;60.28;100994.80;3556508;78;21379;-83
2022/06/05 04:18:27;;;;;;;5.53;5.03;;;;;;;15.21;60.77;100988.64;3600926;77;21568;-83
2022/06/05 04:23:18;;;;;;;5.10;4.70;;;;;;;15.03;61.30;100985.55;3580812;77;20951;-83
2022/06/05 04:28:11;;;;;;;5.83;4.72;;;;;;;14.93;61.45;100989.00;3573466;78;20959;-82
2022/06/05 04:33:04;;;;;;;4.67;3.92;;;;;;;14.81;61.52;100992.46;3587468;77;21447;-83
2022/06/05 04:37:55;;;;;;;5.95;4.83;;;;;;;14.80;61.83;100986.77;3504488;78;21039;-83
2022/06/05 04:42:46;;;;;;;5.65;5.10;;;;;;;14.78;62.08;100995.06;3577263;77;20922;-83
2022/06/05 04:47:39;;;;;;;5.37;4.37;;;;;;;14.78;61.96;100999.43;3574980;77;21266;-83
2022/06/05 04:52:30;;;;;;;9.25;6.08;;;;;;;14.76;61.89;101012.50;3568074;77;20943;-83
2022/06/05 04:57:22;;;;;;;5.15;4.75;;;;;;;14.71;61.48;101008.98;3591389;77;21022;-82
2022/06/05 05:02:13;;;;;;;4.58;4.17;;;;;;;14.73;61.61;101015.10;3642427;77;21233;-83
2022/06/05 05:07:04;;;;;;;4.78;4.20;;;;;;;14.72;61.25;101013.37;3602537;77;20974;-83
2022/06/05 05:11:55;;;;;;;3.83;3.45;;;;;;;14.74;60.78;101026.47;3578441;77;20947;-83
2022/06/05 05:16:47;;;;;;;4.08;3.77;;;;;;;14.81;60.41;101021.70;3567849;77;20896;-82
2022/06/05 05:21:38;;;;;;;3.70;3.40;;;;;;;14.93;60.42;101027.41;3543414;77;20964;-83
2022/06/05 05:26:34;;;;;;;4.62;3.85;;;;;;;15.06;60.03;101025.29;3557437;77;20961;-82
2022/06/05 05:31:29;;;;;;;4.15;3.75;;;;;;;15.19;59.16;101029.68;3562463;77;20943;-83
2022/06/05 05:36:23;;;;;;;4.12;3.75;;;;;;;15.59;58.24;101032.38;3586250;77;21009;-83
2022/06/05 05:46:24;;;;;;;3.72;3.42;;;;;;;16.01;57.31;101028.07;3588361;77;20956;-83
2022/06/05 05:51:16;;;;;;;3.47;3.17;;;;;;;16.64;55.63;101029.70;3556548;77;20993;-83
2022/06/05 05:56:11;;;;;;;3.98;3.25;;;;;;;16.60;55.16;101030.60;3597683;77;20948;-83
2022/06/05 06:01:07;;;;;;;3.62;2.87;;;;;;;16.48;55.48;101031.50;3602594;77;20963;-83
2022/06/05 06:05:59;;;;;;;3.55;2.80;;;;;;;16.60;55.47;101030.60;3559879;77;20924;-83
2022/06/05 06:10:51;;;;;;;3.98;3.35;;;;;;;16.68;55.20;101020.94;3461758;78;21010;-83
2022/06/05 06:15:42;;;;;;;3.67;3.10;;;;;;;16.73;54.55;101020.48;3598840;77;21175;-82
2022/06/05 06:20:33;;;;;;;2.62;2.42;;;;;;;16.74;54.24;101016.99;3587409;77;21548;-82
2022/06/05 06:25:24;;;;;;;4.85;3.17;;;;;;;17.05;54.43;101011.62;3585902;78;20955;-82
2022/06/05 06:30:16;;;;;;;4.92;3.08;;;;;;;17.33;54.16;101016.30;3583008;77;21494;-83
2022/06/05 06:35:08;;;;;;;3.70;2.80;;;;;;;17.52;53.68;101019.66;3542805;77;20951;-82
2022/06/05 06:39:59;;;;;;;4.30;3.00;;;;;;;17.94;52.64;101015.87;3605553;78;22380;-83
2022/06/05 06:44:50;;;;;;;3.65;3.35;;;;;;;18.22;52.37;101016.03;3554949;78;20930;-83
2022/06/05 06:49:41;;;;;;;3.08;2.80;;;;;;;18.94;51.38;101006.50;3556468;77;20929;-84
2022/06/05 06:54:32;;;;;;;3.50;3.05;;;;;;;19.00;51.22;101010.81;3503564;77;20979;-83
2022/06/05 06:59:24;;;;;;;3.47;3.27;;;;;;;19.40;49.56;101019.02;3550360;77;21436;-83
2022/06/05 07:04:17;;;;;;;4.03;3.25;;;;;;;19.42;50.65;101025.16;3579768;77;22176;-84
2022/06/05 07:09:08;;;;;;;2.80;2.60;;;;;;;19.76;49.48;101024.67;3604747;78;20936;-83
2022/06/05 07:13:59;;;;;;;3.65;2.60;;;;;;;19.64;48.75;101019.56;3562375;78;20904;-84
2022/06/05 07:18:50;;;;;;;2.83;2.63;;;;;;;19.87;48.94;101020.54;3611123;77;20994;-84
2022/06/05 07:23:41;;;;;;;3.45;3.15;;;;;;;21.57;45.77;101006.14;3606188;78;20938;-85
2022/06/05 07:28:32;;;;;;;2.85;2.65;;;;;;;24.28;42.85;101004.80;3551802;77;21407;-86
2022/06/05 07:33:24;;;;;;;2.75;2.55;;;;;;;28.80;38.99;101001.55;3592235;77;21001;-86
2022/06/05 07:38:15;;;;;;;3.08;2.77;;;;;;;28.43;38.64;101006.17;3592001;77;20996;-87
2022/06/05 07:43:09;;;;;;;3.08;2.87;;;;;;;31.18;35.13;100998.20;3574325;77;20967;-87
2022/06/05 07:47:59;;;;;;;2.58;2.37;;;;;;;33.61;32.90;100998.69;3557755;77;20959;-86
2022/06/05 07:58:00;;;;;;;2.47;2.27;;;;;;;33.98;32.12;101003.96;3543096;77;20960;-85
2022/06/05 08:02:52;;;;;;;2.37;2.20;;;;;;;33.38;30.99;100998.58;3508741;77;21465;-86
2022/06/05 08:07:43;;;;;;;4.40;3.22;;;;;;;31.06;32.73;100999.35;3524001;77;20928;-85
2022/06/05 08:12:35;;;;;;;3.60;2.62;;;;;;;30.50;32.17;100999.30;3607352;77;21466;-86
2022/06/05 08:17:32;;;;;;;3.80;2.40;;;;;;;29.63;33.07;100996.00;3584662;77;21464;-86
2022/06/05 08:22:25;;;;;;;3.00;2.80;;;;;;;32.83;30.46;100993.19;3537625;77;21076;-87
2022/06/05 08:27:22;;;;;;;2.70;2.42;;;;;;;35.72;28.72;100991.81;3568765;78;20951;-87
2022/06/05 08:32:14;;;;;;;2.60;2.50;;;;;;;37.41;26.88;100990.43;3523672;77;20965;-86
2022/06/05 08:42:30;;;;;;;2.75;2.65;;;;;;;39.14;25.42;100986.17;3552138;77;21169;-87
2022/06/05 08:47:27;;;;;;;5.78;2.45;;;;;;;39.98;24.42;100993.91;3602731;77;20977;-87
2022/06/05 08:52:44;;;;;;;2.72;2.55;;;;;;;40.24;22.31;100990.83;3558411;77;20916;-86
2022/06/05 08:57:52;;;;;;;2.60;2.40;;;;;;;40.20;22.83;100988.42;3595268;77;21148;-86
2022/06/05 09:02:52;;;;;;;2.72;2.52;;;;;;;38.36;24.18;100979.75;3674722;77;21414;-86
2022/06/05 09:07:48;;;;;;;2.95;2.10;;;;;;;38.42;23.17;100981.38;3658904;76;21159;-86
2022/06/05 09:12:50;;;;;;;2.35;2.25;;;;;;;35.35;25.51;100984.11;3656011;76;20979;-86
2022/06/05 09:17:46;;;;;;;2.90;2.70;;;;;;;32.36;26.97;100993.41;3607066;75;21457;-84
2022/06/05 09:22:49;;;;;;;2.20;2.10;;;;;;;30.22;28.16;100984.02;3638468;76;20958;-85
2022/06/05 09:27:59;;;;;;;4.12;2.65;;;;;;;30.09;28.57;100985.73;3645603;75;21014;-86
2022/06/05 09:33:24;;;;;;;2.42;2.22;;;;;;;30.62;28.32;100970.84;3648045;75;22045;-85
2022/06/05 09:38:24;;;;;;;4.95;2.65;;;;;;;30.39;29.07;100975.83;3618256;75;44306;-87
2022/06/05 09:43:54;;;;;;;2.85;2.67;;;;;;;31.28;27.83;100973.31;3644786;75;21390;-88
2022/06/05 09:49:23;;;;;;;2.00;1.90;;;;;;;34.00;25.07;100972.33;3662250;75;21512;-87
2022/06/05 09:54:31;;;;;;;2.20;2.08;;;;;;;36.02;23.57;100967.55;3676124;75;21493;-88
2022/06/05 09:59:31;;;;;;;2.60;2.40;;;;;;;37.11;22.13;100966.47;3621522;75;22030;-88
2022/06/05 10:04:26;;;;;;;2.22;2.10;;;;;;;37.92;22.37;100967.57;3621438;75;21628;-87
2022/06/05 10:09:26;;;;;;;1.87;1.77;;;;;;;38.33;21.14;100970.02;3641410;75;20997;-88
2022/06/05 10:14:51;;;;;;;2.47;1.80;;;;;;;38.36;20.16;100968.89;3673509;75;20916;-88
2022/06/05 10:20:11;;;;;;;1.98;1.75;;;;;;;38.64;20.37;100976.07;3659353;75;20972;-87
2022/06/05 10:25:34;;;;;;;3.50;2.45;;;;;;;38.56;20.98;100970.53;3651388;76;21159;-85
2022/06/05 10:30:33;;;;;;;1.92;1.82;;;;;;;38.60;21.38;100962.45;3656696;75;26660;-86
2022/06/05 10:35:46;;;;;;;2.50;2.30;;;;;;;38.51;20.46;100962.81;3648564;75;21527;-85
2022/06/05 10:40:54;;;;;;;2.22;2.10;;;;;;;38.19;20.92;100971.39;3632081;76;21002;-85
2022/06/05 10:45:50;;;;;;;2.77;1.92;;;;;;;37.86;20.48;100973.56;3649403;75;21218;-85
2022/06/05 10:50:58;;;;;;;1.70;1.60;;;;;;;37.54;20.41;100976.09;3633554;75;21716;-85
2022/06/05 10:56:24;;;;;;;1.75;1.65;;;;;;;37.37;21.10;100965.45;3635038;75;21413;-85
2022/06/05 11:01:50;;;;;;;2.65;1.90;;;;;;;37.04;21.60;100959.05;3649171;75;21443;-84
2022/06/05 11:07:14;;;;;;;2.00;1.90;;;;;;;35.03;22.44;100963.28;3520568;80;20987;-84
2022/06/05 11:18:04;;;;;;;1.80;1.67;;;;;;;31.73;24.32;100970.36;3517931;79;21119;-86
2022/06/05 11:23:16;;;;;;;2.25;2.15;;;;;;;30.71;25.13;100956.84;3482859;78;21031;-86
2022/06/05 11:28:53;;;;;;;2.17;2.00;;;;;;;30.45;26.12;100951.78;3503559;78;21005;-85
2022/06/05 11:33:59;;;;;;;1.90;1.80;;;;;;;29.86;25.31;100950.94;3494535;79;21065;-85
2022/06/05 11:39:07;;;;;;;2.60;1.87;;;;;;;29.62;25.32;100942.91;3499819;78;21508;-86
2022/06/05 11:44:38;;;;;;;1.70;1.60;;;;;;;29.64;26.90;100936.98;3629538;75;20972;-86
2022/06/05 11:49:59;;;;;;;1.82;1.70;;;;;;;29.54;26.53;100941.14;3666469;75;20998;-85
2022/06/05 11:55:22;;;;;;;2.10;1.60;;;;;;;29.45;25.22;100926.96;3680117;75;20936;-86
2022/06/05 12:00:20;;;;;;;1.80;1.67;;;;;;;29.37;26.19;100926.54;3670740;76;20979;-85
2022/06/05 12:05:39;;;;;;;2.02;1.80;;;;;;;29.19;25.60;100922.67;3635002;75;20955;-85
2022/06/05 12:10:33;;;;;;;2.20;2.00;;;;;;;29.03;25.57;100916.45;3642962;77;21464;-84
2022/06/05 12:15:53;;;;;;;1.70;1.60;;;;;;;29.04;26.99;100911.46;3664155;76;21263;-84
2022/06/05 12:21:01;;;;;;;2.00;1.80;;;;;;;29.34;28.07;100903.98;3659527;76;21413;-86
2022/06/05 12:26:03;;;;;;;2.27;1.62;;;;;;;29.27;26.27;100894.95;3654964;75;20970;-85
2022/06/05 12:31:17;;;;;;;1.65;1.55;;;;;;;29.23;27.49;100888.06;3648272;75;21123;-86
2022/06/05 12:36:26;;;;;;;2.05;1.90;;;;;;;29.31;26.47;100890.77;3620902;76;21136;-86
2022/06/05 12:41:37;;;;;;;3.60;1.60;;;;;;;29.32;26.00;100885.33;3623945;75;20884;-85
2022/06/05 12:46:49;;;;;;;1.75;1.60;;;;;;;29.34;26.14;100882.07;3635177;75;20954;-85
2022/06/05 12:51:46;;;;;;;1.90;1.80;;;;;;;29.31;26.47;100877.37;3671199;75;21454;-85
2022/06/05 12:56:50;;;;;;;2.25;1.70;;;;;;;29.38;26.96;100869.36;3632472;75;20931;-85
2022/06/05 13:02:27;;;;;;;1.98;1.87;;;;;;;29.17;25.39;100868.36;3637019;75;22052;-85
2022/06/05 13:07:43;;;;;;;1.65;1.55;;;;;;;29.27;26.74;100862.82;3633662;75;21222;-85
2022/06/05 13:12:52;;;;;;;1.70;1.60;;;;;;;29.34;26.08;100867.83;3662907;75;20980;-85
2022/06/05 13:18:03;;;;;;;1.98;1.87;;;;;;;29.65;26.21;100854.33;3683911;75;22138;-85
2022/06/05 13:23:34;;;;;;;1.75;1.65;;;;;;;29.34;25.58;100850.42;3674040;75;22305;-85
2022/06/05 13:28:35;;;;;;;2.33;1.67;;;;;;;29.16;25.40;100851.05;3641051;75;20998;-85
2022/06/05 13:33:38;;;;;;;1.67;1.57;;;;;;;29.16;25.31;100854.58;3687759;75;21441;-85
2022/06/05 13:38:47;;;;;;;2.98;1.72;;;;;;;29.24;25.04;100853.66;3654655;76;21538;-86
2022/06/05 13:43:41;;;;;;;2.17;1.40;;;;;;;29.27;25.08;100850.77;3641427;75;20991;-85
2022/06/05 13:49:02;;;;;;;1.72;1.62;;;;;;;29.19;25.01;100847.70;3591608;76;20949;-85
2022/06/05 13:54:21;;;;;;;2.00;1.90;;;;;;;29.19;25.17;100849.05;3653425;76;21857;-85
2022/06/05 13:59:29;;;;;;;1.90;1.80;;;;;;;29.24;26.07;100841.61;3666500;75;20936;-85
2022/06/05 14:04:25;;;;;;;2.05;1.80;;;;;;;29.43;26.47;100837.81;3672435;75;21582;-85
2022/06/05 14:09:35;;;;;;;;;;;;;;;29.22;25.43;100827.42;3640152;75;20892;-85
2022/06/05 14:14:42;;;;;;;2.87;2.08;;;;;;;29.17;27.42;100822.84;3633058;75;20795;-86
2022/06/05 14:19:38;;;;;;;2.17;1.98;;;;;;;29.26;27.48;100820.95;3599595;75;21665;-85
2022/06/05 14:24:36;;;;;;;1.77;1.67;;;;;;;29.14;25.32;100820.31;3633386;76;21027;-85
2022/06/05 14:29:33;;;;;;;3.05;1.57;;;;;;;29.12;26.39;100820.89;3642963;75;20980;-85
2022/06/05 14:34:32;;;;;;;2.27;1.70;;;;;;;29.03;25.55;100811.58;3642811;75;20979;-85
2022/06/05 14:39:31;;;;;;;2.00;1.90;;;;;;;29.01;25.35;100818.84;3628557;76;21437;-83
2022/06/05 14:44:39;;;;;;;1.47;1.37;;;;;;;29.03;26.29;100808.05;3662756;75;21080;-82
2022/06/05 14:49:44;;;;;;;1.80;1.70;;;;;;;28.96;25.57;100808.03;3655498;75;20941;-84
2022/06/05 15:00:11;;;;;;;2.20;2.00;;;;;;;28.97;26.73;100797.69;3498240;79;21018;-84
2022/06/05 15:05:11;;;;;;;2.45;1.55;;;;;;;28.95;25.81;100802.28;3473204;79;20963;-84
2022/06/05 15:10:30;;;;;;;1.95;1.85;;;;;;;28.80;26.56;100802.22;3473959;79;21179;-84
2022/06/05 15:15:24;;;;;;;2.50;1.90;;;;;;;28.42;25.06;100795.90;3460359;80;20984;-84
2022/06/05 15:20:21;;;;;;;1.87;1.77;;;;;;;28.22;25.77;100786.78;3466048;80;20962;-83
2022/06/05 15:25:37;;;;;;;1.98;1.50;;;;;;;28.17;25.91;100784.84;3489438;79;20987;-84
2022/06/05 15:30:45;;;;;;;1.98;1.70;;;;;;;28.22;26.18;100777.42;3539519;76;21733;-83
2022/06/05 15:36:06;;;;;;;2.12;1.80;;;;;;;28.07;26.08;100771.14;3641409;75;21165;-84
2022/06/05 15:41:32;;;;;;;1.92;1.82;;;;;;;28.04;26.36;100773.48;3641476;75;21020;-83
2022/06/05 15:46:53;;;;;;;1.70;1.60;;;;;;;27.90;26.06;100770.68;3519306;78;21017;-82
2022/06/05 15:52:16;;;;;;;2.45;2.27;;;;;;;27.91;26.85;100764.44;3523536;78;21139;-83
2022/06/05 16:02:40;;;;;;;4.03;2.77;;;;;;;27.66;27.61;100768.88;3541155;78;22134;-82
2022/06/05 16:07:38;;;;;;;3.08;2.05;;;;;;;27.60;27.54;100763.41;3513467;79;21453;-82
2022/06/05 16:12:33;;;;;;;3.45;2.02;;;;;;;27.50;27.91;100762.16;3540798;78;21470;-83
2022/06/05 16:17:56;;;;;;;2.00;1.90;;;;;;;27.36;28.26;100761.09;3535037;78;20971;-83
2022/06/05 16:23:01;;;;;;;3.40;2.65;;;;;;;27.26;27.76;100762.48;3622721;75;21756;-83
2022/06/05 16:28:10;;;;;;;2.47;2.27;;;;;;;27.03;28.77;100758.33;3614331;76;21586;-82
2022/06/05 16:33:02;;;;;;;2.33;2.12;;;;;;;26.84;29.22;100761.06;3621916;76;21471;-83
2022/06/05 16:37:57;;;;;;;3.42;2.35;;;;;;;26.78;29.53;100764.05;3605954;75;21525;-82
2022/06/05 16:42:49;;;;;;;2.73;2.20;;;;;;;26.66;29.68;100757.98;3654538;76;21110;-83
2022/06/05 16:47:53;;;;;;;2.50;2.30;;;;;;;26.60;29.68;100758.66;3600986;75;20932;-82
2022/06/05 16:52:47;;;;;;;2.02;1.92;;;;;;;26.58;29.84;100757.87;3622903;75;21474;-82
2022/06/05 16:57:55;;;;;;;2.58;2.37;;;;;;;26.38;29.99;100749.96;3651225;76;21013;-82
2022/06/05 17:02:57;;;;;;;2.50;2.30;;;;;;;26.16;30.64;100754.99;3609928;76;20955;-82
2022/06/05 17:08:00;;;;;;;2.40;2.20;;;;;;;26.02;31.27;100750.79;3635971;75;21089;-82
2022/06/05 17:13:04;;;;;;;2.98;2.67;;;;;;;25.91;31.75;100735.28;3648934;75;20940;-82
2022/06/05 17:18:00;;;;;;;2.67;2.47;;;;;;;25.77;31.77;100731.95;3626649;75;22088;-82
2022/06/05 17:22:59;;;;;;;2.65;2.20;;;;;;;25.67;32.85;100737.30;3633222;75;21500;-82
2022/06/05 17:28:14;;;;;;;4.03;2.27;;;;;;;25.51;33.80;100737.59;3606183;76;20958;-82
2022/06/05 17:33:37;;;;;;;3.95;2.17;;;;;;;25.33;33.60;100734.81;3664775;75;21049;-82
2022/06/05 17:38:46;;;;;;;3.00;2.70;;;;;;;25.14;34.14;100746.69;3638852;75;21757;-82
2022/06/05 17:43:53;;;;;;;4.08;2.15;;;;;;;24.93;34.35;100753.78;3644962;75;21339;-81
2022/06/05 17:48:59;;;;;;;2.92;2.37;;;;;;;24.69;35.07;100752.56;3649225;76;21572;-82
2022/06/05 17:53:51;;;;;;;3.45;2.67;;;;;;;24.35;36.36;100758.35;3623562;75;20953;-82
2022/06/05 17:58:47;;;;;;;5.50;3.08;;;;;;;24.00;37.51;100757.06;3662841;76;20963;-82
2022/06/05 18:03:42;;;;;;;3.72;2.52;;;;;;;23.70;38.71;100764.77;3657874;76;21472;-83
2022/06/05 18:08:36;;;;;;;2.77;2.58;;;;;;;23.37;38.60;100765.52;3645406;75;22564;-83
2022/06/05 18:13:42;;;;;;;3.05;2.67;;;;;;;23.03;39.85;100770.64;3644894;76;21137;-82
2022/06/05 18:18:44;;;;;;;2.90;2.60;;;;;;;22.73;40.76;100765.47;3639792;75;20955;-82
2022/06/05 18:23:40;;;;;;;5.67;2.90;;;;;;;22.39;41.38;100758.60;3660485;75;21584;-82
2022/06/05 18:28:43;;;;;;;4.37;3.23;;;;;;;22.04;42.03;100767.12;3666584;75;22180;-82
2022/06/05 18:33:51;;;;;;;3.90;3.25;;;;;;;21.75;42.98;100765.77;3624201;76;23307;-82
2022/06/05 18:38:43;;;;;;;4.08;3.60;;;;;;;21.47;43.97;100771.85;3613002;76;20980;-82
2022/06/05 18:43:37;;;;;;;3.60;3.30;;;;;;;21.21;44.07;100781.33;3579571;76;21101;-82
2022/06/05 18:48:33;;;;;;;4.17;3.58;;;;;;;20.97;44.04;100781.95;3610490;75;20951;-83
2022/06/05 18:53:30;;;;;;;5.30;3.37;;;;;;;20.68;44.50;100782.21;3637746;76;20947;-82
2022/06/05 18:58:39;;;;;;;4.83;4.25;;;;;;;20.39;44.29;100782.41;3664424;75;22009;-82
2022/06/05 19:03:38;;;;;;;4.25;3.85;;;;;;;20.12;45.75;100782.11;3622682;76;21433;-82
2022/06/05 19:08:35;;;;;;;3.17;2.75;;;;;;;19.87;45.34;100776.48;3604568;77;21436;-82
2022/06/05 19:14:06;;;;;;;3.95;3.55;;;;;;;19.63;46.31;100777.80;3647726;77;20990;-82
2022/06/05 19:19:03;;;;;;;4.03;3.62;;;;;;;19.43;46.39;100775.55;3634694;76;20924;-82
2022/06/05 19:24:06;;;;;;;6.40;4.53;;;;;;;19.19;46.79;100770.25;3626286;76;21223;-82
2022/06/05 19:29:03;;;;;;;5.58;4.95;;;;;;;18.97;47.32;100782.48;3666128;75;21237;-82
2022/06/05 19:34:02;;;;;;;7.05;6.37;;;;;;;18.68;47.68;100777.20;3651458;75;21532;-82
2022/06/05 19:39:08;;;;;;;6.75;6.15;;;;;;;18.54;47.92;100780.50;3525642;77;20986;-87
2022/06/05 19:44:05;;;;;;;7.00;6.40;;;;;;;18.42;48.76;100770.15;3565528;77;21030;-85
2022/06/05 19:49:20;;;;;;;8.25;6.85;;;;;;;18.13;48.64;100771.42;3492393;78;21549;-80
2022/06/05 19:54:26;;;;;;;6.95;6.33;;;;;;;17.88;49.28;100767.82;3661736;76;20931;-81
2022/06/05 19:59:30;;;;;;;5.78;5.17;;;;;;;17.79;49.61;100758.67;3612250;77;21072;-81
2022/06/05 20:04:37;;;;;;;8.45;5.40;;;;;;;17.69;49.78;100760.55;3614810;75;20944;-81
2022/06/05 20:09:45;;;;;;;7.50;5.65;;;;;;;17.59;50.24;100767.25;3608228;75;27037;-82
2022/06/05 20:15:15;;;;;;;6.47;4.67;;;;;;;17.48;51.17;100772.17;3643639;77;21575;-81
2022/06/05 20:20:34;;;;;;;10.40;5.90;;;;;;;17.39;50.93;100776.22;3656282;75;21038;-81
2022/06/05 20:25:42;;;;;;;6.20;5.58;;;;;;;17.21;51.68;100779.90;3632782;75;20995;-82
2022/06/05 20:30:58;;;;;;;9.57;6.43;;;;;;;17.15;52.16;100769.42;3640922;75;20955;-82
2022/06/05 20:36:15;;;;;;;6.45;4.78;;;;;;;16.97;52.59;100775.72;3619613;75;20953;-82
2022/06/05 20:41:13;;;;;;;6.30;5.23;;;;;;;16.78;52.65;100773.22;3653092;75;21496;-82
2022/06/05 20:46:10;;;;;;;8.70;5.53;;;;;;;16.55;53.07;100769.89;3684732;75;21633;-81
2022/06/05 20:51:11;;;;;;;6.42;5.42;;;;;;;16.40;53.70;100765.63;3608571;76;21553;-82
2022/06/05 20:56:07;;;;;;;6.58;5.22;;;;;;;16.22;54.08;100770.52;3630442;76;21042;-81
2022/06/05 21:01:03;;;;;;;5.95;5.45;;;;;;;16.05;54.35;100765.81;3613164;75;21006;-82
2022/06/05 21:21:30;;;;;;;6.00;5.12;;;;;;;15.54;55.80;100764.64;3664119;75;21002;-83
2022/06/05 21:26:23;;;;;;;6.42;5.83;;;;;;;15.38;56.02;100763.80;3645289;77;20931;-83
2022/06/05 21:31:25;;;;;;;6.35;5.62;;;;;;;15.29;56.49;100771.69;3580878;76;21516;-83
2022/06/05 21:36:20;;;;;;;8.30;5.67;;;;;;;15.24;56.61;100778.25;3655049;75;20996;-84
2022/06/05 21:41:35;;;;;;;15.98;6.95;;;;;;;15.19;56.96;100795.27;3617076;76;20955;-84
2022/06/05 21:46:29;;;;;;;5.70;5.20;;;;;;;15.12;57.26;100806.63;3651087;75;21196;-84
2022/06/05 21:51:25;;;;;;;5.50;5.00;;;;;;;15.08;57.66;100807.51;3606539;76;21030;-84
2022/06/05 21:56:30;;;;;;;5.85;5.37;;;;;;;15.08;57.80;100812.75;3632445;75;22528;-84
2022/06/05 22:01:24;;;;;;;5.95;5.28;;;;;;;15.03;58.20;100827.58;3640216;77;20967;-83
2022/06/05 22:06:28;;;;;;;5.72;5.22;;;;;;;14.98;58.23;100837.17;3580949;76;21000;-83
2022/06/05 22:11:35;;;;;;;6.83;6.12;;;;;;;14.91;58.63;100840.66;3604749;75;21178;-83
2022/06/05 22:16:26;;;;;;;6.40;5.80;;;;;;;14.88;58.92;100848.08;3616286;77;20960;-84
2022/06/05 22:21:17;;;;;;;6.78;6.17;;;;;;;14.85;58.97;100852.00;3593052;75;21627;-83
2022/06/05 22:26:08;;;;;;;7.85;6.33;;;;;;;14.81;58.85;100858.97;3651794;75;21029;-83
2022/06/05 22:30:59;;;;;;;6.67;6.08;;;;;;;14.72;59.13;100873.35;3648486;75;22194;-83
2022/06/05 22:35:53;;;;;;;6.73;6.13;;;;;;;14.63;59.24;100879.84;3604771;75;21060;-84
2022/06/05 22:40:45;;;;;;;6.22;5.72;;;;;;;14.57;59.46;100882.42;3579673;76;21192;-84
2022/06/05 22:45:36;;;;;;;6.50;5.90;;;;;;;14.47;59.64;100891.55;3604992;75;20943;-84
2022/06/05 22:50:28;;;;;;;7.33;6.00;;;;;;;14.35;59.69;100884.96;3654934;75;21146;-83
2022/06/05 22:55:19;;;;;;;8.08;7.20;;;;;;;14.29;59.86;100881.89;3607499;76;20900;-83
2022/06/05 23:00:16;;;;;;;6.78;6.05;;;;;;;14.22;60.05;100891.02;3575440;75;20908;-83
2022/06/05 23:05:08;;;;;;;7.13;6.40;;;;;;;14.18;60.33;100894.46;3620135;77;20967;-83
2022/06/05 23:09:59;;;;;;;7.92;6.25;;;;;;;14.09;60.53;100890.95;3638979;75;21104;-83
2022/06/05 23:14:50;;;;;;;7.72;6.92;;;;;;;14.01;60.63;100895.25;3658674;75;21010;-83
2022/06/05 23:19:42;;;;;;;7.53;6.83;;;;;;;13.94;61.01;100886.94;3631678;75;20974;-83
2022/06/05 23:24:33;;;;;;;8.15;6.42;;;;;;;13.86;61.32;100882.08;3582276;75;20954;-83
2022/06/05 23:29:25;;;;;;;7.42;6.72;;;;;;;13.79;61.44;100878.98;3593489;76;21464;-83
2022/06/05 23:34:18;;;;;;;6.70;6.10;;;;;;;13.67;61.75;100875.44;3671822;75;22070;-83
2022/06/05 23:39:10;;;;;;;8.43;6.97;;;;;;;13.66;61.94;100867.14;3653160;76;21008;-83
2022/06/05 23:44:02;;;;;;;7.65;6.62;;;;;;;13.58;61.91;100862.32;3624803;75;21472;-83
2022/06/05 23:48:54;;;;;;;7.03;6.42;;;;;;;13.54;62.14;100860.56;3647371;75;20953;-83
2022/06/05 23:53:46;;;;;;;6.75;6.15;;;;;;;13.45;62.06;100852.22;3664797;75;21018;-83
2022/06/05 23:58:41;;;;;;;7.72;7.03;;;;;;;13.44;62.47;100844.37;3617827;76;21173;-83
